KIND/IND METAR and TAF weather

Enter ICAO airport designator
Station Type Date Time Source
KIND METAR 2022/06/27 07:54 UTC NOAA

KIND 270754Z 33011KT 10SM FEW250 18/12 A3015 RMK AO2 SLP202 T01780117 $


Station Type Date Time Source
KIND Decoded METAR 2022/06/27 07:54 UTC NOAA

INDIANAPOLIS INTERNATIONAL AIRPORT , IN, United States (KIND) 39-43N 86-17W 242M
Jun 27, 2022 - 03:54 AM EDT / 2022.06.27 0754 UTC
Wind: from the NNW (330 degrees) at 13 MPH (11 KT):0
Visibility: 10 mile(s):0
Sky conditions: mostly clear
Temperature: 64.0 F (17.8 C)
Dew Point: 53.1 F (11.7 C)
Relative Humidity: 67%
Pressure (altimeter): 30.15 in. Hg (1020 hPa)
ob: KIND 270754Z 33011KT 10SM FEW250 18/12 A3015 RMK AO2 SLP202 T01780117
cycle: 8

Station Type Date Time Source
KIND TAF 2022/06/27 06:22 UTC NOAA

TAF KIND 270520Z 2706/2812 34007KT P6SM SCT250
FM280400 03005KT P6SM SCT250

Example: see airport list